createdAt,value
2023-05-12T00:00:13.209Z,7.60
2023-05-12T00:02:41.227Z,9.25
2023-05-12T00:05:08.580Z,8.75
2023-05-12T00:07:35.501Z,8.48
2023-05-12T00:10:02.679Z,10.05
2023-05-12T00:12:29.568Z,10.48
2023-05-12T00:14:56.363Z,10.32
2023-05-12T00:17:23.309Z,8.95
2023-05-12T00:19:50.201Z,9.05
2023-05-12T00:22:17.264Z,8.55
2023-05-12T00:24:44.455Z,10.77
2023-05-12T00:27:11.268Z,11.13
2023-05-12T00:29:38.167Z,8.93
2023-05-12T00:32:05.500Z,8.30
2023-05-12T00:34:32.454Z,8.85
2023-05-12T00:36:59.347Z,11.57
2023-05-12T00:39:26.247Z,9.90
2023-05-12T00:41:59.725Z,9.05
2023-05-12T00:44:27.048Z,9.45
2023-05-12T00:46:54.451Z,7.97
2023-05-12T00:49:21.591Z,9.43
2023-05-12T00:51:48.434Z,12.00
2023-05-12T00:54:15.401Z,9.95
2023-05-12T00:56:42.250Z,10.60
2023-05-12T00:59:09.800Z,8.80
2023-05-12T01:01:40.036Z,11.57
2023-05-12T01:04:07.333Z,11.82
2023-05-12T01:06:48.743Z,12.40
2023-05-12T01:09:16.168Z,10.48
2023-05-12T01:11:43.581Z,14.38
2023-05-12T01:14:10.478Z,10.98
2023-05-12T01:16:53.325Z,12.18
2023-05-12T01:19:47.747Z,14.43
2023-05-12T01:22:15.069Z,12.82
2023-05-12T01:24:52.056Z,11.68
2023-05-12T01:27:19.605Z,12.30
2023-05-12T01:29:47.074Z,10.98
2023-05-12T01:32:15.934Z,12.35
2023-05-12T01:34:45.280Z,13.40
2023-05-12T01:37:12.761Z,12.50
2023-05-12T01:39:40.620Z,13.95
2023-05-12T01:42:09.953Z,15.60
2023-05-12T01:44:36.859Z,13.75
2023-05-12T01:47:03.894Z,11.75
2023-05-12T01:49:33.091Z,14.63
2023-05-12T01:52:00.202Z,14.38
2023-05-12T01:54:30.260Z,17.73
2023-05-12T01:56:57.224Z,16.95
2023-05-12T01:59:24.713Z,20.67
2023-05-12T02:01:52.615Z,22.08
2023-05-12T02:04:29.109Z,22.08
2023-05-12T02:06:57.876Z,24.92
2023-05-12T02:09:24.825Z,24.92
2023-05-12T02:11:55.927Z,26.92
2023-05-12T02:14:23.003Z,28.73
2023-05-12T02:16:52.771Z,29.25
2023-05-12T02:19:21.954Z,31.75
2023-05-12T02:21:49.405Z,33.80
2023-05-12T02:24:18.963Z,31.45
2023-05-12T02:26:46.259Z,33.65
2023-05-12T02:29:13.691Z,33.60
2023-05-12T02:31:40.601Z,35.13
2023-05-12T02:34:16.749Z,39.00
2023-05-12T02:36:43.646Z,36.03
2023-05-12T02:39:11.847Z,40.28
2023-05-12T02:41:38.723Z,42.88
2023-05-12T02:44:05.626Z,42.35
2023-05-12T02:46:32.992Z,43.28
2023-05-12T02:48:59.941Z,46.90
2023-05-12T02:51:26.932Z,48.97
2023-05-12T02:53:53.803Z,47.70
2023-05-12T02:56:20.871Z,43.30
2023-05-12T02:58:47.937Z,45.20
2023-05-12T03:01:14.900Z,52.95
2023-05-12T03:03:42.349Z,46.70
2023-05-12T03:06:09.939Z,46.70
2023-05-12T03:08:36.956Z,45.92
2023-05-12T03:11:03.895Z,42.28
2023-05-12T03:13:30.760Z,43.75
2023-05-12T03:16:01.270Z,43.13
2023-05-12T03:18:29.134Z,41.90
2023-05-12T03:20:56.136Z,34.05
2023-05-12T03:23:24.649Z,33.53
2023-05-12T03:25:51.628Z,30.83
2023-05-12T03:28:18.584Z,27.45
2023-05-12T03:30:45.671Z,30.75
2023-05-12T03:33:12.516Z,25.10
2023-05-12T03:35:39.475Z,25.73
2023-05-12T03:38:06.697Z,24.38
2023-05-12T03:40:33.667Z,23.13
2023-05-12T03:43:00.524Z,26.60
2023-05-12T03:45:27.351Z,24.13
2023-05-12T03:47:54.205Z,26.05
2023-05-12T03:50:21.264Z,25.33
2023-05-12T03:52:48.311Z,26.80
2023-05-12T03:55:15.160Z,27.42
2023-05-12T03:57:42.975Z,35.50
2023-05-12T04:00:10.848Z,26.77
2023-05-12T04:02:43.934Z,28.67
2023-05-12T04:05:11.028Z,29.92
2023-05-12T04:07:38.280Z,29.35
2023-05-12T04:10:05.589Z,28.15
2023-05-12T04:12:32.804Z,27.88
2023-05-12T04:15:00.214Z,30.42
2023-05-12T04:17:27.165Z,26.42
2023-05-12T04:19:54.181Z,30.38
2023-05-12T04:22:22.787Z,29.98
2023-05-12T04:24:51.459Z,29.33
2023-05-12T04:27:18.478Z,29.23
2023-05-12T04:29:45.495Z,28.33
2023-05-12T04:32:12.341Z,28.08
2023-05-12T04:34:39.283Z,26.50
2023-05-12T04:37:07.166Z,25.90
2023-05-12T04:39:34.555Z,30.48
2023-05-12T04:42:02.373Z,23.15
2023-05-12T04:44:31.592Z,27.02
2023-05-12T04:46:58.764Z,21.90
2023-05-12T04:49:25.622Z,25.60
2023-05-12T04:51:52.451Z,25.83
2023-05-12T04:54:19.255Z,24.30
2023-05-12T04:56:46.243Z,24.90
2023-05-12T04:59:15.805Z,26.67
2023-05-12T05:01:43.995Z,21.90
2023-05-12T05:04:10.992Z,23.73
2023-05-12T05:06:37.971Z,26.00
2023-05-12T05:09:05.286Z,25.63
2023-05-12T05:11:32.679Z,23.92
2023-05-12T05:13:59.547Z,23.88
2023-05-12T05:16:26.628Z,22.38
2023-05-12T05:18:53.594Z,21.23
2023-05-12T05:21:20.517Z,25.17
2023-05-12T05:23:47.345Z,22.60
2023-05-12T05:26:14.554Z,23.80
2023-05-12T05:28:41.425Z,23.83
2023-05-12T05:31:08.669Z,21.95
2023-05-12T05:33:35.616Z,19.55
2023-05-12T05:36:03.897Z,22.55
2023-05-12T05:38:32.717Z,22.45
2023-05-12T05:40:59.539Z,20.83
2023-05-12T05:43:27.672Z,21.95
2023-05-12T05:45:57.040Z,20.75
2023-05-12T05:48:24.808Z,22.50
2023-05-12T05:50:52.113Z,19.65
2023-05-12T05:53:20.273Z,20.40
2023-05-12T05:55:48.588Z,22.92
2023-05-12T05:58:15.800Z,24.08
2023-05-12T06:00:43.590Z,21.50
2023-05-12T06:03:10.491Z,22.58
2023-05-12T06:05:37.846Z,22.40
2023-05-12T06:08:05.348Z,21.67
2023-05-12T06:10:32.303Z,24.90
2023-05-12T06:12:59.214Z,20.92
2023-05-12T06:15:26.054Z,18.88
2023-05-12T06:17:52.961Z,18.40
2023-05-12T06:20:20.287Z,19.35
2023-05-12T06:22:47.310Z,19.38
2023-05-12T06:25:14.198Z,16.67
2023-05-12T06:27:41.171Z,18.05
2023-05-12T06:30:09.514Z,17.85
2023-05-12T06:32:36.377Z,19.27
2023-05-12T06:35:03.398Z,16.77
2023-05-12T06:37:30.212Z,19.38
2023-05-12T06:39:56.981Z,19.05
2023-05-12T06:42:25.256Z,15.43
2023-05-12T06:44:52.209Z,19.05
2023-05-12T06:47:21.109Z,17.45
2023-05-12T06:49:50.056Z,16.65
2023-05-12T06:52:17.120Z,16.48
2023-05-12T06:54:43.956Z,19.17
2023-05-12T06:57:10.876Z,15.32
2023-05-12T06:59:37.793Z,15.43
2023-05-12T07:02:04.728Z,18.95
2023-05-12T07:04:31.547Z,16.13
2023-05-12T07:06:58.589Z,16.58
2023-05-12T07:09:25.444Z,17.02
2023-05-12T07:11:52.289Z,14.18
2023-05-12T07:14:19.146Z,13.75
2023-05-12T07:16:46.818Z,15.35
2023-05-12T07:19:13.806Z,15.57
2023-05-12T07:21:40.657Z,12.90
2023-05-12T07:24:07.658Z,13.55
2023-05-12T07:26:34.542Z,12.77
2023-05-12T07:29:02.557Z,14.30
2023-05-12T07:31:29.468Z,14.38
2023-05-12T07:33:56.528Z,14.35
2023-05-12T07:36:23.416Z,12.23
2023-05-12T07:38:50.278Z,13.73
2023-05-12T07:41:17.935Z,14.10
2023-05-12T07:43:45.540Z,14.02
2023-05-12T07:46:12.387Z,9.93
2023-05-12T07:48:40.423Z,10.70
2023-05-12T07:51:08.024Z,13.38
2023-05-12T07:53:35.103Z,9.95
2023-05-12T07:56:02.034Z,10.00
2023-05-12T07:58:28.956Z,10.70
2023-05-12T08:00:57.040Z,9.05
2023-05-12T08:03:24.169Z,7.60
2023-05-12T08:05:51.048Z,9.27
2023-05-12T08:08:17.872Z,8.55
2023-05-12T08:10:44.712Z,8.75
2023-05-12T08:13:11.601Z,8.90
2023-05-12T08:15:38.775Z,8.27
2023-05-12T08:18:05.608Z,8.20
2023-05-12T08:20:32.494Z,8.57
2023-05-12T08:22:59.297Z,9.50
2023-05-12T08:25:27.839Z,7.45
2023-05-12T08:27:54.828Z,7.18
2023-05-12T08:30:21.602Z,7.05
2023-05-12T08:32:48.575Z,7.50
2023-05-12T08:35:15.466Z,8.43
2023-05-12T08:37:42.403Z,6.03
2023-05-12T08:40:18.328Z,8.45
2023-05-12T08:42:50.519Z,7.80
2023-05-12T08:45:18.122Z,7.45
2023-05-12T08:47:46.043Z,6.38
2023-05-12T08:50:12.904Z,7.53
2023-05-12T08:52:39.776Z,9.45
2023-05-12T08:55:07.402Z,7.63
2023-05-12T08:57:34.221Z,8.10
2023-05-12T09:00:01.022Z,9.35
2023-05-12T09:02:37.726Z,7.30
2023-05-12T09:05:11.867Z,6.75
2023-05-12T09:07:42.185Z,7.80
2023-05-12T09:10:17.151Z,10.77
2023-05-12T09:12:49.536Z,6.80
2023-05-12T09:15:19.279Z,8.00
2023-05-12T09:17:46.224Z,9.82
2023-05-12T09:20:23.833Z,10.80
2023-05-12T09:22:58.239Z,10.20
2023-05-12T09:25:24.978Z,7.05
2023-05-12T09:27:54.990Z,6.53
2023-05-12T09:30:31.822Z,7.80
2023-05-12T09:33:11.908Z,7.70
2023-05-12T09:35:43.414Z,7.15
2023-05-12T09:38:11.798Z,6.10
2023-05-12T09:40:38.660Z,4.85
2023-05-12T09:43:08.726Z,8.50
2023-05-12T09:45:36.440Z,9.48
2023-05-12T09:48:11.045Z,6.60
2023-05-12T09:50:50.351Z,6.68
2023-05-12T09:53:18.996Z,8.88
2023-05-12T09:55:46.535Z,6.78
2023-05-12T09:58:16.084Z,6.80
2023-05-12T10:01:06.043Z,6.55
2023-05-12T10:03:30.357Z,6.50
2023-05-12T10:06:05.644Z,6.90
2023-05-12T10:08:49.705Z,7.90
2023-05-12T10:11:16.636Z,9.15
2023-05-12T10:13:43.560Z,7.72
2023-05-12T10:16:10.519Z,9.40
2023-05-12T10:18:37.425Z,6.22
2023-05-12T10:21:04.537Z,7.13
2023-05-12T10:23:31.329Z,9.30
2023-05-12T10:26:01.999Z,8.88
2023-05-12T10:28:29.278Z,9.57
2023-05-12T10:30:57.276Z,9.80
2023-05-12T10:33:24.828Z,5.57
2023-05-12T10:35:52.479Z,6.63
2023-05-12T10:38:22.413Z,6.75
2023-05-12T10:40:58.904Z,7.57
2023-05-12T10:43:30.052Z,6.03
2023-05-12T10:46:09.802Z,7.40
2023-05-12T10:48:38.261Z,7.90
2023-05-12T10:51:09.443Z,7.60
2023-05-12T10:53:48.656Z,9.18
2023-05-12T10:56:29.368Z,7.85
2023-05-12T10:59:17.726Z,8.23
2023-05-12T11:01:58.942Z,7.07
2023-05-12T11:04:53.864Z,6.32
2023-05-12T11:07:39.903Z,6.60
2023-05-12T11:10:08.050Z,8.95
2023-05-12T11:12:38.131Z,7.45
2023-05-12T11:15:06.018Z,9.48
2023-05-12T11:17:33.249Z,7.03
2023-05-12T11:20:01.501Z,7.90
2023-05-12T11:22:30.295Z,6.90
2023-05-12T11:25:02.232Z,6.50
2023-05-12T11:27:29.797Z,7.97
2023-05-12T11:30:01.334Z,8.00
2023-05-12T11:32:44.032Z,7.78
2023-05-12T11:35:29.043Z,7.85
2023-05-12T11:38:01.624Z,7.32
2023-05-12T11:40:29.071Z,7.10
2023-05-12T11:42:58.654Z,8.90
2023-05-12T11:45:34.232Z,7.80
2023-05-12T11:48:07.932Z,7.95
2023-05-12T11:50:35.926Z,7.40
2023-05-12T11:53:02.731Z,6.95
2023-05-12T11:55:29.726Z,5.93
2023-05-12T11:58:01.223Z,7.10
2023-05-12T12:00:35.152Z,6.73
2023-05-12T12:03:12.961Z,6.70
2023-05-12T12:05:40.941Z,7.30
2023-05-12T12:08:09.409Z,5.03
2023-05-12T12:10:36.543Z,6.45
2023-05-12T12:13:03.558Z,8.48
2023-05-12T12:15:30.801Z,8.18
2023-05-12T12:18:04.426Z,6.03
2023-05-12T12:20:36.067Z,7.00
2023-05-12T12:23:08.665Z,6.60
2023-05-12T12:25:39.988Z,6.28
2023-05-12T12:28:15.910Z,6.15
2023-05-12T12:30:43.157Z,7.38
2023-05-12T12:33:10.192Z,5.82
2023-05-12T12:35:37.104Z,6.30
2023-05-12T12:38:04.644Z,7.60
2023-05-12T12:40:31.517Z,6.15
2023-05-12T12:42:58.358Z,5.45
2023-05-12T12:45:25.575Z,6.30
2023-05-12T12:47:54.741Z,6.05
2023-05-12T12:50:22.133Z,7.55
2023-05-12T12:52:49.244Z,8.02
2023-05-12T12:55:16.364Z,6.82
2023-05-12T12:57:43.286Z,7.95
2023-05-12T13:00:10.626Z,8.10
2023-05-12T13:02:37.865Z,9.35
2023-05-12T13:05:07.045Z,7.93
2023-05-12T13:07:34.527Z,7.78
2023-05-12T13:10:01.399Z,9.02
2023-05-12T13:12:30.460Z,9.65
2023-05-12T13:14:57.547Z,7.20
2023-05-12T13:17:24.762Z,8.35
2023-05-12T13:19:52.665Z,9.70
2023-05-12T13:22:19.521Z,10.18
2023-05-12T13:24:46.812Z,9.23
2023-05-12T13:27:13.616Z,8.93
2023-05-12T13:29:42.276Z,9.88
2023-05-12T13:32:09.234Z,10.93
2023-05-12T13:34:36.128Z,10.32
2023-05-12T13:37:03.516Z,9.57
2023-05-12T13:39:30.438Z,9.70
2023-05-12T13:41:57.224Z,9.50
2023-05-12T13:44:24.155Z,10.90
2023-05-12T13:46:51.193Z,10.60
2023-05-12T13:49:19.786Z,10.80
2023-05-12T13:51:46.740Z,10.77
2023-05-12T13:54:13.666Z,9.57
2023-05-12T13:56:40.511Z,11.32
2023-05-12T13:59:09.380Z,11.90
2023-05-12T14:01:36.367Z,13.00
2023-05-12T14:04:03.567Z,12.00
2023-05-12T14:06:30.518Z,12.35
2023-05-12T14:08:57.312Z,14.15
2023-05-12T14:11:24.385Z,12.23
2023-05-12T14:13:51.290Z,15.27
2023-05-12T14:16:18.200Z,14.88
2023-05-12T14:18:45.116Z,14.20
2023-05-12T14:21:12.049Z,14.27
2023-05-12T14:23:38.871Z,15.45
2023-05-12T14:26:06.972Z,14.23
2023-05-12T14:28:34.242Z,17.40
2023-05-12T14:31:02.757Z,15.57
2023-05-12T14:33:29.626Z,17.63
2023-05-12T14:36:06.534Z,19.10
2023-05-12T14:38:35.161Z,19.05
2023-05-12T14:41:02.059Z,18.50
2023-05-12T14:43:28.844Z,17.92
2023-05-12T14:45:55.733Z,16.77
2023-05-12T14:48:23.509Z,17.10
2023-05-12T14:50:56.795Z,18.40
2023-05-12T14:53:23.767Z,19.10
2023-05-12T14:56:20.276Z,20.73
2023-05-12T14:59:11.405Z,20.73
2023-05-12T15:04:44.349Z,19.77
2023-05-12T15:13:20.339Z,19.63
2023-05-12T15:15:47.366Z,19.95
2023-05-12T15:18:46.449Z,21.30
2023-05-12T15:21:20.831Z,17.80
2023-05-12T15:23:50.667Z,21.63
2023-05-12T15:26:32.658Z,19.80
2023-05-12T15:29:02.846Z,18.95
2023-05-12T15:31:52.229Z,20.48
2023-05-12T15:34:55.572Z,18.58
2023-05-12T15:37:22.703Z,23.25
2023-05-12T15:39:51.126Z,22.23
2023-05-12T15:42:22.362Z,18.65
2023-05-12T15:44:53.764Z,20.80
2023-05-12T15:47:20.603Z,21.27
2023-05-12T15:49:48.117Z,21.63
2023-05-12T15:52:15.054Z,22.08
2023-05-12T15:55:02.991Z,21.65
2023-05-12T15:57:29.829Z,21.77
2023-05-12T15:59:58.732Z,19.88
2023-05-12T16:02:25.878Z,20.58
2023-05-12T16:04:52.812Z,20.58
2023-05-12T16:07:19.718Z,23.50
2023-05-12T16:09:46.788Z,21.60
2023-05-12T16:12:15.277Z,21.67
2023-05-12T16:14:42.253Z,21.00
2023-05-12T16:17:09.577Z,20.42
2023-05-12T16:19:36.495Z,22.80
2023-05-12T16:22:03.437Z,21.77
2023-05-12T16:24:30.301Z,22.73
2023-05-12T16:26:57.119Z,22.15
2023-05-12T16:29:23.935Z,27.63
2023-05-12T16:31:51.213Z,19.85
2023-05-12T16:34:19.260Z,22.83
2023-05-12T16:36:46.190Z,20.83
2023-05-12T16:39:13.127Z,20.92
2023-05-12T16:41:40.076Z,21.65
2023-05-12T16:44:07.073Z,22.65
2023-05-12T16:46:34.028Z,19.08
2023-05-12T16:49:01.051Z,19.40
2023-05-12T16:51:32.075Z,20.00
2023-05-12T16:53:58.986Z,22.42
2023-05-12T16:56:27.395Z,19.08
2023-05-12T16:58:54.227Z,19.70
2023-05-12T17:01:21.315Z,21.50
2023-05-12T17:03:48.480Z,20.35
2023-05-12T17:06:15.497Z,18.05
2023-05-12T17:08:42.362Z,19.35
2023-05-12T17:11:09.657Z,21.88
2023-05-12T17:13:38.138Z,20.77
2023-05-12T17:16:05.345Z,22.63
2023-05-12T17:18:32.362Z,22.08
2023-05-12T17:20:59.257Z,21.00
2023-05-12T17:23:26.884Z,21.92
2023-05-12T17:25:54.005Z,21.75
2023-05-12T17:28:21.272Z,23.40
2023-05-12T17:30:48.449Z,21.00
2023-05-12T17:33:15.648Z,23.05
2023-05-12T17:35:42.807Z,21.73
2023-05-12T17:38:09.732Z,22.45
2023-05-12T17:40:36.929Z,24.88
2023-05-12T17:43:04.315Z,24.52
2023-05-12T17:45:31.265Z,24.05
2023-05-12T17:47:58.370Z,20.58
2023-05-12T17:50:25.284Z,23.48
2023-05-12T17:52:53.366Z,24.20
2023-05-12T17:55:20.473Z,23.52
2023-05-12T17:57:49.308Z,22.42
2023-05-12T18:00:16.881Z,20.75
2023-05-12T18:02:45.276Z,20.15
2023-05-12T18:05:15.828Z,26.17
2023-05-12T18:07:42.746Z,25.58
2023-05-12T18:10:10.124Z,27.58
2023-05-12T18:12:37.786Z,24.67
2023-05-12T18:15:05.134Z,23.08
2023-05-12T18:17:32.506Z,26.17
2023-05-12T18:19:59.494Z,21.05
2023-05-12T18:22:26.502Z,30.45
2023-05-12T18:24:53.461Z,28.88
2023-05-12T18:27:20.438Z,26.70
2023-05-12T18:29:47.376Z,28.33
2023-05-12T18:32:14.228Z,21.10
2023-05-12T18:34:44.052Z,28.30
2023-05-12T18:37:14.370Z,26.90
2023-05-12T18:39:46.736Z,22.40
2023-05-12T18:44:42.805Z,21.92
2023-05-12T18:47:11.100Z,24.77
2023-05-12T18:49:39.447Z,25.83
2023-05-12T18:52:06.413Z,28.58
2023-05-12T18:54:33.301Z,24.65
2023-05-12T18:57:02.728Z,24.20
2023-05-12T18:59:29.677Z,28.48
2023-05-12T19:01:59.176Z,23.27
2023-05-12T19:04:26.257Z,27.10
2023-05-12T19:06:53.122Z,24.52
2023-05-12T19:09:20.079Z,25.50
2023-05-12T19:11:47.115Z,26.48
2023-05-12T19:14:15.941Z,23.75
2023-05-12T19:16:43.061Z,25.15
2023-05-12T19:19:10.092Z,27.10
2023-05-12T19:21:37.258Z,25.85
2023-05-12T19:24:04.298Z,26.42
2023-05-12T19:26:31.238Z,25.88
2023-05-12T19:28:58.386Z,27.02
2023-05-12T19:31:25.404Z,23.92
2023-05-12T19:33:52.242Z,27.83
2023-05-12T19:36:19.169Z,23.20
2023-05-12T19:38:46.097Z,26.60
2023-05-12T19:41:12.934Z,24.85
2023-05-12T19:43:39.893Z,29.30
2023-05-12T19:46:06.865Z,24.80
2023-05-12T19:48:33.687Z,27.75
2023-05-12T19:51:00.686Z,26.80
2023-05-12T19:53:27.520Z,27.88
2023-05-12T19:55:54.452Z,28.58
2023-05-12T19:58:21.325Z,25.73
2023-05-12T20:00:48.274Z,23.67
2023-05-12T20:03:15.431Z,22.67
2023-05-12T20:05:42.658Z,28.27
2023-05-12T20:08:09.580Z,23.27
2023-05-12T20:10:36.388Z,28.35
2023-05-12T20:13:03.834Z,30.25
2023-05-12T20:15:31.303Z,26.30
2023-05-12T20:17:58.334Z,24.33
2023-05-12T20:20:25.353Z,26.65
2023-05-12T20:22:52.345Z,27.60
2023-05-12T20:25:19.893Z,25.15
2023-05-12T20:27:47.099Z,28.52
2023-05-12T20:30:14.097Z,24.55
2023-05-12T20:32:41.096Z,28.42
2023-05-12T20:35:09.143Z,23.67
2023-05-12T20:37:36.072Z,29.58
2023-05-12T20:40:03.472Z,23.65
2023-05-12T20:42:30.934Z,26.48
2023-05-12T20:44:59.085Z,25.17
2023-05-12T20:47:26.273Z,22.42
2023-05-12T20:49:57.318Z,25.60
2023-05-12T20:52:24.686Z,21.88
2023-05-12T20:54:56.862Z,20.25
2023-05-12T20:57:23.860Z,26.42
2023-05-12T20:59:52.655Z,26.48
2023-05-12T21:02:19.935Z,31.02
2023-05-12T21:04:46.775Z,24.70
2023-05-12T21:07:13.638Z,23.35
2023-05-12T21:09:40.544Z,25.35
2023-05-12T21:12:07.731Z,25.88
2023-05-12T21:14:43.548Z,21.75
2023-05-12T21:17:10.663Z,25.80
2023-05-12T21:19:38.368Z,26.98
2023-05-12T21:22:05.884Z,28.58
2023-05-12T21:24:33.138Z,26.33
2023-05-12T21:27:03.431Z,22.52
2023-05-12T21:29:31.504Z,25.70
2023-05-12T21:31:58.468Z,24.67
2023-05-12T21:34:25.812Z,27.23
2023-05-12T21:36:52.782Z,28.95
2023-05-12T21:39:22.021Z,26.92
2023-05-12T21:41:49.187Z,24.77
2023-05-12T21:44:16.289Z,20.67
2023-05-12T21:46:43.367Z,21.75
2023-05-12T21:49:10.664Z,23.45
2023-05-12T21:51:37.560Z,24.75
2023-05-12T21:54:04.446Z,24.15
2023-05-12T21:56:31.381Z,24.00
2023-05-12T21:58:58.244Z,24.50
2023-05-12T22:01:25.190Z,27.45
2023-05-12T22:03:52.170Z,25.00
2023-05-12T22:06:19.188Z,31.45
2023-05-12T22:08:46.054Z,26.83
2023-05-12T22:11:12.967Z,24.60
2023-05-12T22:13:39.895Z,27.08
2023-05-12T22:16:06.980Z,26.05
2023-05-12T22:18:35.040Z,28.50
2023-05-12T22:21:01.934Z,28.65
2023-05-12T22:23:28.832Z,28.55
2023-05-12T22:25:56.032Z,27.58
2023-05-12T22:28:22.857Z,31.02
2023-05-12T22:30:49.824Z,27.45
2023-05-12T22:33:16.677Z,23.00
2023-05-12T22:35:43.538Z,27.83
2023-05-12T22:38:10.467Z,28.05
2023-05-12T22:40:37.343Z,23.75
2023-05-12T22:43:04.275Z,26.88
2023-05-12T22:45:31.228Z,28.27
2023-05-12T22:47:58.433Z,22.38
2023-05-12T22:50:25.441Z,29.63
2023-05-12T22:52:57.090Z,26.75
2023-05-12T22:55:30.496Z,24.00
2023-05-12T22:57:58.105Z,27.10
2023-05-12T23:00:24.999Z,24.45
2023-05-12T23:02:52.040Z,26.63
2023-05-12T23:05:19.272Z,25.85
2023-05-12T23:07:46.406Z,25.13
2023-05-12T23:10:13.372Z,23.83
2023-05-12T23:12:40.296Z,26.10
2023-05-12T23:15:07.761Z,24.67
2023-05-12T23:17:34.717Z,24.95
2023-05-12T23:20:01.747Z,19.65
2023-05-12T23:22:28.624Z,23.63
2023-05-12T23:24:56.710Z,26.10
2023-05-12T23:27:24.416Z,20.65
2023-05-12T23:29:51.364Z,22.80
2023-05-12T23:32:18.439Z,21.80
2023-05-12T23:34:45.468Z,25.00
2023-05-12T23:37:12.374Z,24.60
2023-05-12T23:39:39.452Z,22.13
2023-05-12T23:42:06.613Z,26.45
2023-05-12T23:44:35.706Z,28.83
2023-05-12T23:47:02.650Z,22.63
2023-05-12T23:49:29.650Z,23.75
2023-05-12T23:51:56.650Z,26.70
2023-05-12T23:54:23.617Z,21.35
2023-05-12T23:56:50.551Z,24.25
2023-05-12T23:59:17.444Z,26.38
